North Kingstown, Rhode Island
Current Conditions -  °F | °C
As of 3:53 AM on Saturday 20 Dec 2014 (Local Time) from KUUU Reporting Station
Overcast Overcast  
Wind Chill: 20°   Ceiling: 3300
Heat Index: 29°   Visibility: 10mi
Dew Point: 21°   Wind: 9mph
Humidity: 72%   Direction: 360°N
Pressure: 30.16"   Gusts: NA
Location:  41.6°N, 71.42°W
Report Text: KUUU 200853Z AUTO 36008KT 10SM OVC033 M02/M06 A3016 RMK AO2 SLP215 T10171061 51007
Loading
Personal Weather Stations






























Interactive Weather Map New forecast layout! Learn more

10-Day Weather Forecast

Advertisements
Track Severe Weather on mobile